createdAt,value
2016-02-20T00:00:27.917Z,70.74
2016-02-20T00:01:27.873Z,70.74
2016-02-20T00:02:27.876Z,70.55
2016-02-20T00:03:27.863Z,70.64
2016-02-20T00:04:27.866Z,70.74
2016-02-20T00:05:27.857Z,70.74
2016-02-20T00:06:27.853Z,70.93
2016-02-20T00:07:27.841Z,71.02
2016-02-20T00:08:27.843Z,70.74
2016-02-20T00:09:27.846Z,70.74
2016-02-20T00:10:27.833Z,70.93
2016-02-20T00:11:27.852Z,71.12
2016-02-20T00:12:27.838Z,70.93
2016-02-20T00:13:27.841Z,70.93
2016-02-20T00:14:27.844Z,70.64
2016-02-20T00:15:27.815Z,70.74
2016-02-20T00:16:27.818Z,70.93
2016-02-20T00:17:27.805Z,70.83
2016-02-20T00:18:27.808Z,71.21
2016-02-20T00:19:27.794Z,71.21
2016-02-20T00:20:27.782Z,71.21
2016-02-20T00:21:27.800Z,70.74
2016-02-20T00:22:27.788Z,71.12
2016-02-20T00:23:27.774Z,71.21
2016-02-20T00:24:27.777Z,71.12
2016-02-20T00:25:27.764Z,71.02
2016-02-20T00:26:27.767Z,71.31
2016-02-20T00:27:27.769Z,71.21
2016-02-20T00:28:27.757Z,71.12
2016-02-20T00:29:27.759Z,70.83
2016-02-20T00:30:27.590Z,71.12
2016-02-20T00:31:27.739Z,71.21
2016-02-20T00:32:27.757Z,70.93
2016-02-20T00:33:27.744Z,71.31
2016-02-20T00:34:27.731Z,71.4
2016-02-20T00:35:27.718Z,71.02
2016-02-20T00:36:27.720Z,71.12
2016-02-20T00:37:27.738Z,71.21
2016-02-20T00:38:27.710Z,71.21
2016-02-20T00:39:27.697Z,71.02
2016-02-20T00:40:27.700Z,71.12
2016-02-20T00:41:27.702Z,71.12
2016-02-20T00:42:27.705Z,71.02
2016-02-20T00:43:27.692Z,70.74
2016-02-20T00:44:27.695Z,71.02
2016-02-20T00:45:27.682Z,71.02
2016-02-20T00:46:27.669Z,71.12
2016-02-20T00:47:27.671Z,71.02
2016-02-20T00:48:27.675Z,71.59
2016-02-20T00:49:27.662Z,71.02
2016-02-20T00:50:27.664Z,70.93
2016-02-20T00:51:27.651Z,71.02
2016-02-20T00:52:27.654Z,70.93
2016-02-20T00:53:27.656Z,70.93
2016-02-20T00:54:27.643Z,71.02
2016-02-20T00:55:27.647Z,71.12
2016-02-20T00:56:27.665Z,71.02
2016-02-20T00:57:27.637Z,71.02
2016-02-20T00:58:27.623Z,70.93
2016-02-20T00:59:27.626Z,71.02
2016-02-20T01:00:27.612Z,70.83
2016-02-20T01:01:27.600Z,70.83
2016-02-20T01:02:27.603Z,71.02
2016-02-20T01:03:27.605Z,70.83
2016-02-20T01:04:27.593Z,71.02
2016-02-20T01:05:27.595Z,70.64
2016-02-20T01:06:27.582Z,70.93
2016-02-20T01:07:27.586Z,70.93
2016-02-20T01:08:27.572Z,70.93
2016-02-20T01:09:27.574Z,70.83
2016-02-20T01:10:27.562Z,71.21
2016-02-20T01:11:27.580Z,71.21
2016-02-20T01:12:27.567Z,71.12
2016-02-20T01:13:27.555Z,70.64
2016-02-20T01:14:27.542Z,71.12
2016-02-20T01:15:27.560Z,71.02
2016-02-20T01:16:27.530Z,71.5
2016-02-20T01:17:27.533Z,71.12
2016-02-20T01:18:27.537Z,70.83
2016-02-20T01:19:27.524Z,71.4
2016-02-20T01:20:27.510Z,71.27
2016-02-20T01:21:27.518Z,71.27
2016-02-20T01:22:27.537Z,71.27
2016-02-20T01:23:27.508Z,71.27
2016-02-20T01:24:27.511Z,71.36
2016-02-20T01:25:27.498Z,71.27
2016-02-20T01:26:27.328Z,71.36
2016-02-20T01:27:27.487Z,71.36
2016-02-20T01:28:27.490Z,71.55
2016-02-20T01:29:27.524Z,71.65
2016-02-20T01:30:27.495Z,71.65
2016-02-20T01:31:27.467Z,72.03
2016-02-20T01:32:27.454Z,72.03
2016-02-20T01:33:27.456Z,71.84
2016-02-20T01:34:27.444Z,71.55
2016-02-20T01:35:27.446Z,72.12
2016-02-20T01:36:27.449Z,71.74
2016-02-20T01:37:27.436Z,72.03
2016-02-20T01:38:27.423Z,72.03
2016-02-20T01:39:27.426Z,71.74
2016-02-20T01:40:27.429Z,71.84
2016-02-20T01:41:27.416Z,72.5
2016-02-20T01:42:27.403Z,72.6
2016-02-20T01:43:27.405Z,72.6
2016-02-20T01:44:27.393Z,72.6
2016-02-20T01:45:27.410Z,71.84
2016-02-20T01:46:27.398Z,72.41
2016-02-20T01:47:27.385Z,72.22
2016-02-20T01:48:27.372Z,72.5
2016-02-20T01:49:27.374Z,72.22
2016-02-20T01:50:27.377Z,72.97
2016-02-20T01:51:27.349Z,72.5
2016-02-20T01:52:27.351Z,72.78
2016-02-20T01:53:27.354Z,72.88
2016-02-20T01:54:27.341Z,73.07
2016-02-20T01:55:27.329Z,72.97
2016-02-20T01:56:27.346Z,72.5
2016-02-20T01:57:27.334Z,72.88
2016-02-20T01:58:27.321Z,73.35
2016-02-20T01:59:27.308Z,73.26
2016-02-20T02:00:27.311Z,72.88
2016-02-20T02:01:27.297Z,72.22
2016-02-20T02:02:27.285Z,72.5
2016-02-20T02:03:27.287Z,72.41
2016-02-20T02:04:27.275Z,72.6
2016-02-20T02:05:27.275Z,72.5
2016-02-20T02:06:27.278Z,72.78
2016-02-20T02:07:27.264Z,72.5
2016-02-20T02:08:27.250Z,72.88
2016-02-20T02:09:27.238Z,72.88
2016-02-20T02:10:27.241Z,72.69
2016-02-20T02:11:27.244Z,72.6
2016-02-20T02:12:27.247Z,72.97
2016-02-20T02:13:27.233Z,72.6
2016-02-20T02:14:27.236Z,72.69
2016-02-20T02:15:27.224Z,72.69
2016-02-20T02:16:27.210Z,72.97
2016-02-20T02:17:27.197Z,72.69
2016-02-20T02:18:27.199Z,72.69
2016-02-20T02:19:27.202Z,72.6
2016-02-20T02:20:27.190Z,72.5
2016-02-20T02:21:27.193Z,72.78
2016-02-20T02:22:27.179Z,73.07
2016-02-20T02:23:27.166Z,72.69
2016-02-20T02:24:27.169Z,72.78
2016-02-20T02:25:27.156Z,72.69
2016-02-20T02:26:27.159Z,72.88
2016-02-20T02:27:27.146Z,72.88
2016-02-20T02:28:27.148Z,72.78
2016-02-20T02:29:27.136Z,72.88
2016-02-20T02:30:27.139Z,73.07
2016-02-20T02:31:27.141Z,72.69
2016-02-20T02:32:27.128Z,72.69
2016-02-20T02:33:27.115Z,72.5
2016-02-20T02:34:27.118Z,72.78
2016-02-20T02:35:27.120Z,72.97
2016-02-20T02:36:27.108Z,72.78
2016-02-20T02:37:27.094Z,72.69
2016-02-20T02:38:27.097Z,73.26
2016-02-20T02:39:26.631Z,72.88
2016-02-20T02:40:27.086Z,72.12
2016-02-20T02:41:27.089Z,72.97
2016-02-20T02:42:27.061Z,72.41
2016-02-20T02:43:27.064Z,72.41
2016-02-20T02:44:27.067Z,72.5
2016-02-20T02:45:27.054Z,72.22
2016-02-20T02:46:27.041Z,72.22
2016-02-20T02:47:27.043Z,72.41
2016-02-20T02:48:27.030Z,72.6
2016-02-20T02:49:27.033Z,72.5
2016-02-20T02:50:27.020Z,72.03
2016-02-20T02:51:27.023Z,72.5
2016-02-20T02:52:27.010Z,72.73
2016-02-20T02:53:27.012Z,71.88
2016-02-20T02:54:26.485Z,72.06
2016-02-20T02:55:27.002Z,71.97
2016-02-20T02:56:27.005Z,72.12
2016-02-20T02:57:26.993Z,72.06
2016-02-20T02:58:26.979Z,71.97
2016-02-20T02:59:26.982Z,71.93
2016-02-20T03:00:26.970Z,71.93
2016-02-20T03:01:26.957Z,72.03
2016-02-20T03:02:26.959Z,72.22
2016-02-20T03:03:26.789Z,72.03
2016-02-20T03:04:26.948Z,71.93
2016-02-20T03:05:26.951Z,72.03
2016-02-20T03:06:26.938Z,72.12
2016-02-20T03:07:26.942Z,71.84
2016-02-20T03:08:26.928Z,71.84
2016-02-20T03:09:26.915Z,72.69
2016-02-20T03:10:26.917Z,72.03
2016-02-20T03:11:26.920Z,72.41
2016-02-20T03:12:26.892Z,72.41
2016-02-20T03:13:26.910Z,72.22
2016-02-20T03:14:26.898Z,72.12
2016-02-20T03:15:26.884Z,72.12
2016-02-20T03:16:26.888Z,72.97
2016-02-20T03:17:26.874Z,72.6
2016-02-20T03:18:26.861Z,72.5
2016-02-20T03:19:26.879Z,72.88
2016-02-20T03:20:26.866Z,72.88
2016-02-20T03:21:26.854Z,72.5
2016-02-20T03:22:26.840Z,72.6
2016-02-20T03:23:26.827Z,72.88
2016-02-20T03:24:26.831Z,72.69
2016-02-20T03:25:26.833Z,72.88
2016-02-20T03:26:26.821Z,72.88
2016-02-20T03:27:26.824Z,72.78
2016-02-20T03:28:26.810Z,72.69
2016-02-20T03:29:26.828Z,72.5
2016-02-20T03:30:26.801Z,72.41
2016-02-20T03:31:26.802Z,72.78
2016-02-20T03:32:26.789Z,72.69
2016-02-20T03:33:26.776Z,72.6
2016-02-20T03:34:26.795Z,73.54
2016-02-20T03:35:26.767Z,73.54
2016-02-20T03:36:26.770Z,73.35
2016-02-20T03:37:26.756Z,73.54
2016-02-20T03:38:26.759Z,73.16
2016-02-20T03:39:26.761Z,73.32
2016-02-20T03:40:26.749Z,73.35
2016-02-20T03:41:26.736Z,73.35
2016-02-20T03:42:26.739Z,73.32
2016-02-20T03:43:26.725Z,73.16
2016-02-20T03:44:26.728Z,73.5
2016-02-20T03:45:26.716Z,73.35
2016-02-20T03:46:26.702Z,73.22
2016-02-20T03:47:26.908Z,73.32
2016-02-20T03:48:26.692Z,73.5
2016-02-20T03:49:26.680Z,73.5
2016-02-20T03:50:26.682Z,73.22
2016-02-20T03:51:26.684Z,73.79
2016-02-20T03:52:26.672Z,73.5
2016-02-20T03:53:26.658Z,73.32
2016-02-20T03:54:26.646Z,73.79
2016-02-20T03:55:26.649Z,73.69
2016-02-20T03:56:26.651Z,73.41
2016-02-20T03:57:26.638Z,73.79
2016-02-20T03:58:26.625Z,73.5
2016-02-20T03:59:26.612Z,73.79
2016-02-20T04:00:27.099Z,73.6
2016-02-20T04:01:26.602Z,73.5
2016-02-20T04:02:26.590Z,73.6
2016-02-20T04:03:26.607Z,73.98
2016-02-20T04:04:26.595Z,73.98
2016-02-20T04:05:26.597Z,74.07
2016-02-20T04:06:26.584Z,74.45
2016-02-20T04:07:26.587Z,73.98
2016-02-20T04:08:26.559Z,73.98
2016-02-20T04:09:26.577Z,74.17
2016-02-20T04:10:26.548Z,74.07
2016-02-20T04:11:26.551Z,73.98
2016-02-20T04:12:26.553Z,73.88
2016-02-20T04:13:26.525Z,74.17
2016-02-20T04:14:26.528Z,74.07
2016-02-20T04:15:26.514Z,74.17
2016-02-20T04:16:26.517Z,74.36
2016-02-20T04:17:26.520Z,73.98
2016-02-20T04:18:26.492Z,74.07
2016-02-20T04:19:26.494Z,73.98
2016-02-20T04:20:26.481Z,73.88
2016-02-20T04:21:26.500Z,73.88
2016-02-20T04:22:26.471Z,73.88
2016-02-20T04:23:26.489Z,73.88
2016-02-20T04:24:26.446Z,73.88
2016-02-20T04:25:26.448Z,73.98
2016-02-20T04:26:26.435Z,74.45
2016-02-20T04:27:26.437Z,74.26
2016-02-20T04:28:26.441Z,74.17
2016-02-20T04:29:26.427Z,74.07
2016-02-20T04:30:26.415Z,74.45
2016-02-20T04:31:26.417Z,73.98
2016-02-20T04:32:26.404Z,74.45
2016-02-20T04:33:26.407Z,74.64
2016-02-20T04:34:26.394Z,74.36
2016-02-20T04:35:26.396Z,74.45
2016-02-20T04:36:26.384Z,74.64
2016-02-20T04:37:26.370Z,74.55
2016-02-20T04:38:26.359Z,74.36
2016-02-20T04:39:26.361Z,74.74
2016-02-20T04:40:26.364Z,74.45
2016-02-20T04:41:26.351Z,74.45
2016-02-20T04:42:26.353Z,74.64
2016-02-20T04:43:26.340Z,74.55
2016-02-20T04:44:26.328Z,74.45
2016-02-20T04:45:26.346Z,74.36
2016-02-20T04:46:26.317Z,74.36
2016-02-20T04:47:26.303Z,74.45
2016-02-20T04:48:26.292Z,74.36
2016-02-20T04:49:26.294Z,74.64
2016-02-20T04:50:26.297Z,74.83
2016-02-20T04:51:26.284Z,74.64
2016-02-20T04:52:26.271Z,74.64
2016-02-20T04:53:26.289Z,74.83
2016-02-20T04:54:26.260Z,74.74
2016-02-20T04:55:26.247Z,75.12
2016-02-20T04:56:26.250Z,74.93
2016-02-20T04:57:26.238Z,74.45
2016-02-20T04:58:25.474Z,74.83
2016-02-20T04:59:26.243Z,74.64
2016-02-20T05:00:26.214Z,75.12
2016-02-20T05:01:26.217Z,75.21
2016-02-20T05:02:26.204Z,75.12
2016-02-20T05:03:26.207Z,75.12
2016-02-20T05:04:26.194Z,74.93
2016-02-20T05:05:26.181Z,75.12
2016-02-20T05:06:26.168Z,75.12
2016-02-20T05:07:26.170Z,74.93
2016-02-20T05:08:26.173Z,74.93
2016-02-20T05:09:26.159Z,74.74
2016-02-20T05:10:26.162Z,74.83
2016-02-20T05:11:26.151Z,74.74
2016-02-20T05:12:26.137Z,74.83
2016-02-20T05:13:26.139Z,74.45
2016-02-20T05:14:26.127Z,74.45
2016-02-20T05:15:26.129Z,74.45
2016-02-20T05:16:26.117Z,75.02
2016-02-20T05:17:26.119Z,74.64
2016-02-20T05:18:26.091Z,74.64
2016-02-20T05:19:26.094Z,74.83
2016-02-20T05:20:26.080Z,74.83
2016-02-20T05:21:26.084Z,74.93
2016-02-20T05:22:26.070Z,74.93
2016-02-20T05:23:26.072Z,74.74
2016-02-20T05:24:26.045Z,74.74
2016-02-20T05:25:26.047Z,74.83
2016-02-20T05:26:26.050Z,74.83
2016-02-20T05:27:26.052Z,74.93
2016-02-20T05:28:26.024Z,75.12
2016-02-20T05:29:26.027Z,74.64
2016-02-20T05:30:26.013Z,75.12
2016-02-20T05:31:26.016Z,75.02
2016-02-20T05:32:26.004Z,74.83
2016-02-20T05:33:26.006Z,74.83
2016-02-20T05:34:25.993Z,74.83
2016-02-20T05:35:25.996Z,74.55
2016-02-20T05:36:25.967Z,74.93
2016-02-20T05:37:25.985Z,74.83
2016-02-20T05:38:25.957Z,74.74
2016-02-20T05:39:25.976Z,74.83
2016-02-20T05:40:25.946Z,74.88
2016-02-20T05:41:25.965Z,75.07
2016-02-20T05:42:25.937Z,75.02
2016-02-20T05:43:25.923Z,75.49
2016-02-20T05:44:25.926Z,74.6
2016-02-20T05:45:25.945Z,75.45
2016-02-20T05:46:25.900Z,74.98
2016-02-20T05:47:25.903Z,75.36
2016-02-20T05:48:25.889Z,74.79
2016-02-20T05:49:25.909Z,74.6
2016-02-20T05:50:25.880Z,74.88
2016-02-20T05:51:25.867Z,74.79
2016-02-20T05:52:25.870Z,75.45
2016-02-20T05:53:25.872Z,75.36
2016-02-20T05:54:25.859Z,75.36
2016-02-20T05:55:25.847Z,75.36
2016-02-20T05:56:25.850Z,75.26
2016-02-20T05:57:25.836Z,75.07
2016-02-20T05:58:25.823Z,74.79
2016-02-20T05:59:25.826Z,75.36
2016-02-20T06:00:25.813Z,75.07
2016-02-20T06:01:25.815Z,75.26
2016-02-20T06:02:25.788Z,75.07
2016-02-20T06:03:25.790Z,75.45
2016-02-20T06:04:25.777Z,75.45
2016-02-20T06:05:26.045Z,75.07
2016-02-20T06:06:25.766Z,74.79
2016-02-20T06:07:25.769Z,75.07
2016-02-20T06:08:25.756Z,75.07
2016-02-20T06:09:25.743Z,74.88
2016-02-20T06:10:25.746Z,74.98
2016-02-20T06:11:25.733Z,75.45
2016-02-20T06:12:25.721Z,75.17
2016-02-20T06:13:25.707Z,75.26
2016-02-20T06:14:25.710Z,75.45
2016-02-20T06:15:25.697Z,75.26
2016-02-20T06:16:25.700Z,75.17
2016-02-20T06:17:25.703Z,75.93
2016-02-20T06:18:25.673Z,75.83
2016-02-20T06:19:25.692Z,75.17
2016-02-20T06:20:25.679Z,75.74
2016-02-20T06:21:25.666Z,75.26
2016-02-20T06:22:25.653Z,75.26
2016-02-20T06:23:25.672Z,75.45
2016-02-20T06:24:25.644Z,75.26
2016-02-20T06:25:25.661Z,75.26
2016-02-20T06:26:25.617Z,75.36
2016-02-20T06:27:25.620Z,75.45
2016-02-20T06:28:25.622Z,75.55
2016-02-20T06:29:25.610Z,75.45
2016-02-20T06:30:25.597Z,75.36
2016-02-20T06:31:25.584Z,75.45
2016-02-20T06:32:25.571Z,75.26
2016-02-20T06:33:25.589Z,75.31
2016-02-20T06:34:25.576Z,75.31
2016-02-20T06:35:25.563Z,75.17
2016-02-20T06:36:25.565Z,75.31
2016-02-20T06:37:25.585Z,75.31
2016-02-20T06:38:25.540Z,75.31
2016-02-20T06:39:25.559Z,75.21
2016-02-20T06:40:25.529Z,75.31
2016-02-20T06:41:25.517Z,75.21
2016-02-20T06:42:25.520Z,75.4
2016-02-20T06:43:25.507Z,75.12
2016-02-20T06:44:25.510Z,75.02
2016-02-20T06:45:25.496Z,75.12
2016-02-20T06:46:25.483Z,75.02
2016-02-20T06:47:25.486Z,75.02
2016-02-20T06:48:25.473Z,75.4
2016-02-20T06:49:25.476Z,75.12
2016-02-20T06:50:25.463Z,75.4
2016-02-20T06:51:25.466Z,75.68
2016-02-20T06:52:25.453Z,75.59
2016-02-20T06:53:25.471Z,75.49
2016-02-20T06:54:25.443Z,75.49
2016-02-20T06:55:25.445Z,74.64
2016-02-20T06:56:25.448Z,74.74
2016-02-20T06:57:25.419Z,74.64
2016-02-20T06:58:25.406Z,74.83
2016-02-20T06:59:25.409Z,75.31
2016-02-20T07:00:25.396Z,74.93
2016-02-20T07:01:25.399Z,75.12
2016-02-20T07:02:25.402Z,75.12
2016-02-20T07:03:25.388Z,74.93
2016-02-20T07:04:25.376Z,75.02
2016-02-20T07:05:25.379Z,74.93
2016-02-20T07:06:25.365Z,75.02
2016-02-20T07:07:25.352Z,75.21
2016-02-20T07:08:25.386Z,74.36
2016-02-20T07:09:25.343Z,74.26
2016-02-20T07:10:25.345Z,74.74
2016-02-20T07:11:25.331Z,74.74
2016-02-20T07:12:25.319Z,74.83
2016-02-20T07:13:25.321Z,74.45
2016-02-20T07:14:24.637Z,74.45
2016-02-20T07:15:25.327Z,74.49
2016-02-20T07:16:25.314Z,74.49
2016-02-20T07:17:25.301Z,74.58
2016-02-20T07:18:25.288Z,74.68
2016-02-20T07:19:25.292Z,74.02
2016-02-20T07:20:25.278Z,73.92
2016-02-20T07:21:25.280Z,73.92
2016-02-20T07:22:25.267Z,73.92
2016-02-20T07:23:25.270Z,74.02
2016-02-20T07:24:25.258Z,74.02
2016-02-20T07:25:25.261Z,74.02
2016-02-20T07:26:25.247Z,73.92
2016-02-20T07:27:25.234Z,74.02
2016-02-20T07:28:25.236Z,74.02
2016-02-20T07:29:25.240Z,74.11
2016-02-20T07:30:25.227Z,74.02
2016-02-20T07:31:25.229Z,74.49
2016-02-20T07:32:25.216Z,73.54
2016-02-20T07:33:25.204Z,73.73
2016-02-20T07:34:25.207Z,73.83
2016-02-20T07:35:25.193Z,73.64
2016-02-20T07:36:25.197Z,73.83
2016-02-20T07:37:25.183Z,73.64
2016-02-20T07:38:25.185Z,73.49
2016-02-20T07:39:25.188Z,73.26
2016-02-20T07:40:25.176Z,73.3
2016-02-20T07:41:25.178Z,73.2
2016-02-20T07:42:25.165Z,73.39
2016-02-20T07:43:25.168Z,73.58
2016-02-20T07:44:25.155Z,73.39
2016-02-20T07:45:25.157Z,73.3
2016-02-20T07:46:25.176Z,73.39
2016-02-20T07:47:25.742Z,73.39
2016-02-20T07:48:25.134Z,73.39
2016-02-20T07:49:25.137Z,73.49
2016-02-20T07:50:25.156Z,72.92
2016-02-20T07:51:25.127Z,72.82
2016-02-20T07:52:25.130Z,72.92
2016-02-20T07:53:25.132Z,72.82
2016-02-20T07:54:25.120Z,72.82
2016-02-20T07:55:25.169Z,72.92
2016-02-20T07:56:25.125Z,72.92
2016-02-20T07:57:25.112Z,72.63
2016-02-20T07:58:25.099Z,72.82
2016-02-20T07:59:25.086Z,72.63
2016-02-20T08:00:25.088Z,72.96
2016-02-20T08:01:25.075Z,72.67
2016-02-20T08:02:25.078Z,72.77
2016-02-20T08:03:25.080Z,72.77
2016-02-20T08:04:25.069Z,73.05
2016-02-20T08:05:25.055Z,72.86
2016-02-20T08:06:25.058Z,72.77
2016-02-20T08:07:25.046Z,72.67
2016-02-20T08:08:25.157Z,72.86
2016-02-20T08:09:25.050Z,72.96
2016-02-20T08:10:25.054Z,72.19
2016-02-20T08:11:25.087Z,72.48
2016-02-20T08:12:25.043Z,72.38
2016-02-20T08:13:25.029Z,72.48
2016-02-20T08:14:25.032Z,72.67
2016-02-20T08:15:25.020Z,72.19
2016-02-20T08:16:25.069Z,72
2016-02-20T08:17:25.010Z,71.91
2016-02-20T08:18:25.028Z,72
2016-02-20T08:19:25.405Z,72.1
2016-02-20T08:20:25.017Z,72.1
2016-02-20T08:21:25.004Z,72
2016-02-20T08:22:25.007Z,71.91
2016-02-20T08:23:25.009Z,72.1
2016-02-20T08:24:24.997Z,72
2016-02-20T08:25:25.031Z,71.81
2016-02-20T08:26:24.986Z,72
2016-02-20T08:27:24.990Z,72.42
2016-02-20T08:28:24.992Z,71.81
2016-02-20T08:29:24.994Z,72.14
2016-02-20T08:30:24.982Z,71.76
2016-02-20T08:31:24.985Z,72.14
2016-02-20T08:32:24.972Z,71.85
2016-02-20T08:33:24.958Z,71.57
2016-02-20T08:34:24.961Z,71.66
2016-02-20T08:35:24.964Z,72.04
2016-02-20T08:36:24.951Z,72.14
2016-02-20T08:37:25.048Z,72.04
2016-02-20T08:38:24.955Z,71.95
2016-02-20T08:39:24.931Z,71.66
2016-02-20T08:40:24.923Z,71.09
2016-02-20T08:41:24.898Z,71.47
2016-02-20T08:42:24.889Z,71.09
2016-02-20T08:43:24.867Z,71.47
2016-02-20T08:45:24.864Z,70.9
2016-02-20T08:46:24.862Z,71.28
2016-02-20T08:47:24.844Z,71.19
2016-02-20T08:48:24.843Z,71.09
2016-02-20T08:49:24.845Z,70.9
2016-02-20T08:50:24.846Z,70.81
2016-02-20T08:51:24.832Z,70.24
2016-02-20T08:52:24.833Z,70.43
2016-02-20T08:53:24.819Z,70.24
2016-02-20T08:54:24.821Z,70.47
2016-02-20T08:55:24.823Z,70.18
2016-02-20T08:56:24.826Z,69.99
2016-02-20T08:57:24.812Z,69.57
2016-02-20T08:58:24.814Z,68.85
2016-02-20T08:59:24.817Z,69.33
2016-02-20T09:00:24.804Z,69.04
2016-02-20T09:01:24.806Z,68.95
2016-02-20T09:02:24.809Z,68.25
2016-02-20T09:03:24.795Z,68.76
2016-02-20T09:04:24.798Z,67.71
2016-02-20T09:05:24.800Z,68.1
2016-02-20T09:06:24.787Z,68.29
2016-02-20T09:07:24.775Z,68.29
2016-02-20T09:08:24.778Z,68.29
2016-02-20T09:09:24.795Z,68.29
2016-02-20T09:10:24.783Z,68.66
2016-02-20T09:11:24.786Z,68.76
2016-02-20T09:12:24.788Z,68.66
2016-02-20T09:13:24.774Z,67.9
2016-02-20T09:14:24.809Z,68.29
2016-02-20T09:15:24.780Z,67.62
2016-02-20T09:16:24.768Z,67.9
2016-02-20T09:17:24.770Z,67.52
2016-02-20T09:18:25.023Z,67.33
2016-02-20T09:19:25.057Z,66.86
2016-02-20T09:20:24.762Z,66.61
2016-02-20T09:21:24.765Z,66.52
2016-02-20T09:22:24.768Z,66.23
2016-02-20T09:23:24.754Z,65.95
2016-02-20T09:24:24.758Z,65.19
2016-02-20T09:25:24.760Z,65.66
2016-02-20T09:26:24.762Z,65.56
2016-02-20T09:27:24.766Z,65.19
2016-02-20T09:28:24.753Z,65.28
2016-02-20T09:29:24.740Z,65.56
2016-02-20T09:30:24.743Z,65.66
2016-02-20T09:31:24.745Z,65.37
2016-02-20T09:32:24.748Z,65.28
2016-02-20T09:33:24.750Z,64.9
2016-02-20T09:34:24.753Z,64.62
2016-02-20T09:35:24.740Z,64.71
2016-02-20T09:36:24.743Z,64.65
2016-02-20T09:37:24.730Z,65.03
2016-02-20T09:38:24.733Z,64.08
2016-02-20T09:39:24.736Z,64.75
2016-02-20T09:40:24.738Z,65.03
2016-02-20T09:41:24.741Z,64.75
2016-02-20T09:42:24.728Z,65.03
2016-02-20T09:43:24.730Z,64.75
2016-02-20T09:44:24.733Z,64.27
2016-02-20T09:45:24.736Z,64.08
2016-02-20T09:46:24.723Z,63.98
2016-02-20T09:47:24.741Z,63.89
2016-02-20T09:48:24.744Z,64.08
2016-02-20T09:49:24.731Z,63.6
2016-02-20T09:50:24.734Z,63.42
2016-02-20T09:51:24.737Z,62.94
2016-02-20T09:52:24.724Z,63.54
2016-02-20T09:53:24.726Z,62.21
2016-02-20T09:54:24.745Z,63.07
2016-02-20T09:55:24.732Z,63.17
2016-02-20T09:56:24.734Z,62.5
2016-02-20T09:57:24.737Z,63.07
2016-02-20T09:58:24.756Z,62.97
2016-02-20T09:59:24.758Z,63.26
2016-02-20T10:00:24.726Z,62.5
2016-02-20T10:01:24.715Z,62.5
2016-02-20T10:02:24.732Z,62.59
2016-02-20T10:03:24.735Z,62.69
2016-02-20T10:04:24.723Z,62.78
2016-02-20T10:05:24.772Z,62.5
2016-02-20T10:06:24.728Z,62.31
2016-02-20T10:07:24.730Z,62.78
2016-02-20T10:08:24.717Z,62.78
2016-02-20T10:09:24.719Z,61.65
2016-02-20T10:10:24.723Z,61.65
2016-02-20T10:11:24.725Z,62.02
2016-02-20T10:12:24.712Z,61.83
2016-02-20T10:13:24.731Z,61.93
2016-02-20T10:14:24.717Z,62.02
2016-02-20T10:15:24.736Z,62.02
2016-02-20T10:16:24.722Z,61.93
2016-02-20T10:17:24.725Z,61.83
2016-02-20T10:18:24.744Z,61.45
2016-02-20T10:19:24.716Z,60.88
2016-02-20T10:20:24.750Z,60.98
2016-02-20T10:21:24.721Z,60.22
2016-02-20T10:22:24.723Z,60.6
2016-02-20T10:23:24.742Z,61.17
2016-02-20T10:24:24.729Z,61.17
2016-02-20T10:25:24.590Z,61.36
2016-02-20T10:26:24.718Z,61.36
2016-02-20T10:27:25.331Z,61.74
2016-02-20T10:28:24.724Z,61.65
2016-02-20T10:29:24.758Z,61.36
2016-02-20T10:30:24.729Z,61.55
2016-02-20T10:31:24.732Z,61.26
2016-02-20T10:32:24.110Z,61.26
2016-02-20T10:33:24.737Z,61.45
2016-02-20T10:34:24.975Z,61.65
2016-02-20T10:35:24.758Z,61.55
2016-02-20T10:36:24.730Z,60.79
2016-02-20T10:37:24.733Z,60.88
2016-02-20T10:38:24.751Z,61.45
2016-02-20T10:39:24.753Z,61.36
2016-02-20T10:40:24.741Z,61.26
2016-02-20T10:41:24.728Z,61.45
2016-02-20T10:42:24.747Z,61.36
2016-02-20T10:43:24.717Z,61.26
2016-02-20T10:44:24.736Z,60.98
2016-02-20T10:45:24.739Z,61.17
2016-02-20T10:46:24.757Z,61.65
2016-02-20T10:47:24.728Z,61.45
2016-02-20T10:48:24.763Z,60.98
2016-02-20T10:49:24.733Z,61.36
2016-02-20T10:50:24.736Z,61.36
2016-02-20T10:51:24.739Z,61.55
2016-02-20T10:52:24.773Z,61.65
2016-02-20T10:53:24.744Z,61.36
2016-02-20T10:54:24.731Z,61.65
2016-02-20T10:55:24.749Z,61.65
2016-02-20T10:56:24.768Z,61.83
2016-02-20T10:57:24.740Z,61.65
2016-02-20T10:58:24.758Z,61.55
2016-02-20T10:59:24.729Z,61.93
2016-02-20T11:00:24.731Z,61.65
2016-02-20T11:01:24.734Z,62.12
2016-02-20T11:02:24.737Z,62.12
2016-02-20T11:03:24.740Z,62.02
2016-02-20T11:04:24.743Z,61.99
2016-02-20T11:05:24.746Z,61.99
2016-02-20T11:06:24.732Z,61.99
2016-02-20T11:07:24.751Z,62.66
2016-02-20T11:08:24.737Z,62.66
2016-02-20T11:09:24.756Z,62.46
2016-02-20T11:10:24.759Z,62.66
2016-02-20T11:11:24.745Z,62.46
2016-02-20T11:12:24.593Z,62.46
2016-02-20T11:13:24.736Z,62.37
2016-02-20T11:14:24.739Z,62.66
2016-02-20T11:15:24.757Z,63.13
2016-02-20T11:16:24.791Z,63.13
2016-02-20T11:17:24.762Z,63.13
2016-02-20T11:18:24.750Z,62.94
2016-02-20T11:19:24.752Z,63.6
2016-02-20T11:20:24.739Z,63.13
2016-02-20T11:21:24.742Z,62.75
2016-02-20T11:22:24.760Z,62.94
2016-02-20T11:23:24.747Z,63.7
2016-02-20T11:24:24.735Z,63.32
2016-02-20T11:25:24.737Z,63.32
2016-02-20T11:26:24.740Z,63.42
2016-02-20T11:27:24.743Z,63.42
2016-02-20T11:28:24.760Z,63.51
2016-02-20T11:29:24.763Z,63.51
2016-02-20T11:30:24.751Z,63.42
2016-02-20T11:31:24.769Z,63.04
2016-02-20T11:32:24.740Z,62.94
2016-02-20T11:33:24.743Z,63.79
2016-02-20T11:34:24.746Z,63.23
2016-02-20T11:35:24.764Z,62.94
2016-02-20T11:36:24.734Z,62.85
2016-02-20T11:37:24.737Z,63.73
2016-02-20T11:38:24.740Z,63.45
2016-02-20T11:39:23.962Z,63.64
2016-02-20T11:40:24.918Z,63.04
2016-02-20T11:41:24.734Z,62.85
2016-02-20T11:42:24.736Z,63.07
2016-02-20T11:43:24.723Z,62.97
2016-02-20T11:44:24.726Z,63.32
2016-02-20T11:45:24.728Z,62.94
2016-02-20T11:46:24.824Z,62.88
2016-02-20T11:47:24.749Z,62.78
2016-02-20T11:48:24.564Z,63.07
2016-02-20T11:49:24.739Z,63.07
2016-02-20T11:50:24.742Z,63.13
2016-02-20T11:51:24.728Z,63.26
2016-02-20T11:52:24.731Z,63.83
2016-02-20T11:53:24.797Z,63.73
2016-02-20T11:54:24.736Z,63.64
2016-02-20T11:55:24.739Z,63.6
2016-02-20T11:56:24.820Z,63.54
2016-02-20T11:57:24.823Z,63.45
2016-02-20T11:58:24.810Z,63.73
2016-02-20T11:59:24.718Z,64.21
2016-02-20T12:00:24.877Z,63.54
2016-02-20T12:01:25.052Z,63.54
2016-02-20T12:02:24.774Z,63.92
2016-02-20T12:03:26.026Z,63.26
2016-02-20T12:04:26.217Z,64.11
2016-02-20T12:05:24.735Z,64.11
2016-02-20T12:06:24.723Z,64.4
2016-02-20T12:07:25.147Z,63.89
2016-02-20T12:08:24.946Z,64.11
2016-02-20T12:09:24.809Z,64.17
2016-02-20T12:10:24.874Z,63.89
2016-02-20T12:11:24.986Z,64.17
2016-02-20T12:12:24.738Z,64.08
2016-02-20T12:13:24.834Z,64.75
2016-02-20T12:14:24.759Z,64.65
2016-02-20T12:15:24.747Z,64.65
2016-02-20T12:16:24.749Z,64.94
2016-02-20T12:17:25.018Z,64.65
2016-02-20T12:18:24.863Z,64.75
2016-02-20T12:19:24.742Z,64.78
2016-02-20T12:20:24.885Z,64.94
2016-02-20T12:21:24.871Z,64.84
2016-02-20T12:22:24.936Z,64.84
2016-02-20T12:23:24.736Z,64.84
2016-02-20T12:24:24.739Z,65.22
2016-02-20T12:25:24.742Z,65.12
2016-02-20T12:26:24.714Z,65.69
2016-02-20T12:27:24.732Z,66.17
2016-02-20T12:28:24.735Z,65.79
2016-02-20T12:29:24.721Z,66.55
2016-02-20T12:30:24.724Z,66.74
2016-02-20T12:31:24.726Z,66.55
2016-02-20T12:32:24.713Z,66.64
2016-02-20T12:33:24.732Z,66.74
2016-02-20T12:34:24.719Z,66.64
2016-02-20T12:35:24.722Z,67.12
2016-02-20T12:36:24.710Z,67.4
2016-02-20T12:37:24.727Z,66.93
2016-02-20T12:38:24.715Z,67.4
2016-02-20T12:39:24.733Z,67.12
2016-02-20T12:40:24.985Z,67.31
2016-02-20T12:41:24.707Z,67.31
2016-02-20T12:42:24.740Z,67.59
2016-02-20T12:43:24.728Z,67.4
2016-02-20T12:44:24.809Z,67.59
2016-02-20T12:45:24.718Z,67.88
2016-02-20T12:46:24.705Z,67.65
2016-02-20T12:47:24.708Z,67.69
2016-02-20T12:48:24.710Z,68.23
2016-02-20T12:49:24.697Z,68.23
2016-02-20T12:50:24.700Z,68.13
2016-02-20T12:51:24.703Z,68.04
2016-02-20T12:52:24.705Z,68.32
2016-02-20T12:53:24.692Z,68.32
2016-02-20T12:54:24.711Z,68.32
2016-02-20T12:55:24.697Z,68.32
2016-02-20T12:56:24.716Z,68.32